createdAt,value
2018-03-15T00:00:44.128Z,78.50
2018-03-15T00:05:46.683Z,78.40
2018-03-15T00:10:49.996Z,78.00
2018-03-15T00:15:52.526Z,78.00
2018-03-15T00:20:55.840Z,78.40
2018-03-15T00:25:58.374Z,78.50
2018-03-15T00:31:00.909Z,78.10
2018-03-15T00:36:04.213Z,78.10
2018-03-15T00:41:06.746Z,78.10
2018-03-15T00:46:09.281Z,78.00
2018-03-15T00:51:11.866Z,78.10
2018-03-15T00:56:14.422Z,78.00
2018-03-15T01:01:16.941Z,78.40
2018-03-15T01:06:19.480Z,78.10
2018-03-15T01:11:22.015Z,78.00
2018-03-15T01:16:25.379Z,78.10
2018-03-15T01:21:28.698Z,78.20
2018-03-15T01:26:31.261Z,78.20
2018-03-15T01:31:33.799Z,78.20
2018-03-15T01:36:36.342Z,78.10
2018-03-15T01:41:39.704Z,78.20
2018-03-15T01:46:42.239Z,78.00
2018-03-15T01:51:44.773Z,78.00
2018-03-15T01:56:47.305Z,78.10
2018-03-15T02:01:49.873Z,78.40
2018-03-15T02:06:52.402Z,78.30
2018-03-15T02:11:54.946Z,78.10
2018-03-15T02:16:57.503Z,78.80
2018-03-15T02:22:00.111Z,78.80
2018-03-15T02:27:03.357Z,79.20
2018-03-15T02:32:06.662Z,78.20
2018-03-15T02:37:09.187Z,78.10
2018-03-15T02:42:11.731Z,78.50
2018-03-15T02:47:14.272Z,78.80
2018-03-15T02:52:17.567Z,79.30
2018-03-15T02:57:20.094Z,79.30
2018-03-15T03:02:23.444Z,79.00
2018-03-15T03:07:26.765Z,78.90
2018-03-15T03:12:29.289Z,78.90
2018-03-15T03:17:31.843Z,78.60
2018-03-15T03:22:34.383Z,78.90
2018-03-15T03:27:36.926Z,78.80
2018-03-15T03:32:40.233Z,78.80
2018-03-15T03:37:42.767Z,78.80
2018-03-15T03:42:45.327Z,78.90
2018-03-15T03:47:48.622Z,78.70
2018-03-15T03:52:51.172Z,78.60
2018-03-15T03:57:53.701Z,79.00
2018-03-15T04:02:56.242Z,78.80
2018-03-15T04:07:59.534Z,78.80
2018-03-15T04:13:02.070Z,78.80
2018-03-15T04:18:04.606Z,78.70
2018-03-15T04:23:07.135Z,78.90
2018-03-15T04:28:09.677Z,78.80
2018-03-15T04:33:12.215Z,78.80
2018-03-15T04:38:14.750Z,78.40
2018-03-15T04:43:18.060Z,78.90
2018-03-15T04:48:21.374Z,79.00
2018-03-15T04:53:24.686Z,78.50
2018-03-15T04:58:27.218Z,78.50
2018-03-15T05:03:29.758Z,78.60
2018-03-15T05:08:32.282Z,78.50
2018-03-15T05:13:35.595Z,78.90
2018-03-15T05:18:38.148Z,78.90
2018-03-15T05:23:40.678Z,79.10
2018-03-15T05:28:43.214Z,78.90
2018-03-15T05:33:45.754Z,79.20
2018-03-15T05:38:48.318Z,79.20
2018-03-15T05:43:50.873Z,78.90
2018-03-15T05:48:53.404Z,79.10
2018-03-15T05:53:56.702Z,79.20
2018-03-15T05:58:59.259Z,79.20
2018-03-15T06:04:01.791Z,79.40
2018-03-15T06:09:04.352Z,79.20
2018-03-15T06:14:07.649Z,79.60
2018-03-15T06:19:10.189Z,79.60
2018-03-15T06:24:12.746Z,80.00
2018-03-15T06:29:15.289Z,79.30
2018-03-15T06:34:17.862Z,80.30
2018-03-15T06:39:20.403Z,80.40
2018-03-15T06:44:22.946Z,80.20
2018-03-15T06:49:25.510Z,80.10
2018-03-15T06:54:28.030Z,80.20
2018-03-15T06:59:30.577Z,80.10
2018-03-15T07:04:33.158Z,79.60
2018-03-15T07:09:35.724Z,79.60
2018-03-15T07:14:38.306Z,79.80
2018-03-15T07:19:40.886Z,79.80
2018-03-15T07:24:43.429Z,80.40
2018-03-15T07:29:45.973Z,80.90
2018-03-15T07:34:48.552Z,81.60
2018-03-15T07:39:51.102Z,82.00
2018-03-15T07:44:54.416Z,82.70
2018-03-15T07:49:57.742Z,82.10
2018-03-15T07:55:01.046Z,83.90
2018-03-15T08:00:04.358Z,83.40
2018-03-15T08:05:07.691Z,82.60
2018-03-15T08:10:11.007Z,83.20
2018-03-15T08:15:13.546Z,83.30
2018-03-15T08:20:16.107Z,83.50
2018-03-15T08:25:19.450Z,80.90
2018-03-15T08:30:21.998Z,80.90
2018-03-15T08:35:24.533Z,81.30
2018-03-15T08:40:27.083Z,78.10
2018-03-15T08:45:29.622Z,78.90
2018-03-15T08:50:32.216Z,77.80
2018-03-15T08:55:34.842Z,76.60
2018-03-15T09:00:37.406Z,74.90
2018-03-15T09:05:39.981Z,74.30
2018-03-15T09:10:42.535Z,69.70
2018-03-15T09:15:45.079Z,72.00
2018-03-15T09:20:47.657Z,69.70
2018-03-15T09:25:50.186Z,69.50
2018-03-15T09:30:53.475Z,69.10
2018-03-15T09:35:56.050Z,69.10
2018-03-15T09:40:58.590Z,64.70
2018-03-15T09:46:01.240Z,67.50
2018-03-15T09:51:03.792Z,66.80
2018-03-15T09:56:06.351Z,66.20
2018-03-15T10:01:08.913Z,67.10
2018-03-15T10:06:11.451Z,66.40
2018-03-15T10:11:14.042Z,65.30
2018-03-15T10:16:16.598Z,67.20
2018-03-15T10:21:19.907Z,62.60
2018-03-15T10:26:23.218Z,62.10
2018-03-15T10:31:26.534Z,66.40
2018-03-15T10:36:29.078Z,66.40
2018-03-15T10:41:31.687Z,64.20
2018-03-15T10:46:34.294Z,65.90
2018-03-15T10:51:36.850Z,66.70
2018-03-15T10:56:39.847Z,64.70
2018-03-15T11:01:48.745Z,64.00
2018-03-15T11:06:58.774Z,63.90
2018-03-15T11:12:01.315Z,64.00
2018-03-15T11:17:03.848Z,63.00
2018-03-15T11:22:06.442Z,61.10
2018-03-15T11:27:08.990Z,61.10
2018-03-15T11:32:11.526Z,63.80
2018-03-15T11:37:14.110Z,60.30
2018-03-15T11:42:16.681Z,61.80
2018-03-15T11:47:20.005Z,58.90
2018-03-15T11:52:22.554Z,58.90
2018-03-15T11:57:25.116Z,58.10
2018-03-15T12:02:27.682Z,57.80
2018-03-15T12:07:30.250Z,58.10
2018-03-15T12:12:32.796Z,57.30
2018-03-15T12:17:35.381Z,58.10
2018-03-15T12:22:37.918Z,57.70
2018-03-15T12:27:40.466Z,58.40
2018-03-15T12:32:43.770Z,58.00
2018-03-15T12:37:47.061Z,57.60
2018-03-15T12:42:49.614Z,57.50
2018-03-15T12:47:52.155Z,57.90
2018-03-15T12:52:54.745Z,58.70
2018-03-15T12:57:57.385Z,56.30
2018-03-15T13:02:59.946Z,56.60
2018-03-15T13:08:02.498Z,54.60
2018-03-15T13:13:05.042Z,56.50
2018-03-15T13:18:07.585Z,56.10
2018-03-15T13:23:10.963Z,55.20
2018-03-15T13:28:13.459Z,55.30
2018-03-15T13:33:16.114Z,54.80
2018-03-15T13:38:19.431Z,54.70
2018-03-15T13:43:21.978Z,54.70
2018-03-15T13:48:24.521Z,52.30
2018-03-15T13:53:27.830Z,52.20
2018-03-15T13:58:30.430Z,52.10
2018-03-15T14:03:32.970Z,51.30
2018-03-15T14:08:35.526Z,54.00
2018-03-15T14:13:38.843Z,52.40
2018-03-15T14:18:42.155Z,51.80
2018-03-15T14:23:44.696Z,51.70
2018-03-15T14:28:47.250Z,53.50
2018-03-15T14:33:49.831Z,53.30
2018-03-15T14:38:52.392Z,54.80
2018-03-15T14:43:54.959Z,52.00
2018-03-15T14:48:57.482Z,53.90
2018-03-15T14:54:00.009Z,53.50
2018-03-15T14:59:02.547Z,53.60
2018-03-15T15:04:05.862Z,52.10
2018-03-15T15:09:09.357Z,54.00
2018-03-15T15:14:11.909Z,53.80
2018-03-15T15:19:14.448Z,53.70
2018-03-15T15:24:16.994Z,52.40
2018-03-15T15:29:19.537Z,53.10
2018-03-15T15:34:22.106Z,53.60
2018-03-15T15:39:24.660Z,54.70
2018-03-15T15:44:27.211Z,54.80
2018-03-15T15:49:29.779Z,54.90
2018-03-15T15:54:33.099Z,53.30
2018-03-15T15:59:36.422Z,54.40
2018-03-15T16:04:38.952Z,54.40
2018-03-15T16:09:41.494Z,55.40
2018-03-15T16:14:44.811Z,54.30
2018-03-15T16:19:47.346Z,54.20
2018-03-15T16:24:52.314Z,53.90
2018-03-15T16:29:54.904Z,54.60
2018-03-15T16:34:57.457Z,54.90
2018-03-15T16:40:00.014Z,55.00
2018-03-15T16:45:02.811Z,55.80
2018-03-15T16:50:05.357Z,56.60
2018-03-15T16:55:07.911Z,57.10
2018-03-15T17:00:11.281Z,57.40
2018-03-15T17:05:14.718Z,57.80
2018-03-15T17:10:17.671Z,58.10
2018-03-15T17:15:20.268Z,58.60
2018-03-15T17:20:22.818Z,59.20
2018-03-15T17:25:25.395Z,59.80
2018-03-15T17:30:27.977Z,59.00
2018-03-15T17:35:30.538Z,59.70
2018-03-15T17:40:33.104Z,59.60
2018-03-15T17:45:35.836Z,59.40
2018-03-15T17:50:39.100Z,59.70
2018-03-15T17:55:41.661Z,59.70
2018-03-15T18:00:44.235Z,59.80
2018-03-15T18:05:47.148Z,59.70
2018-03-15T18:10:51.284Z,60.00
2018-03-15T18:15:53.917Z,60.00
2018-03-15T18:20:56.495Z,60.10
2018-03-15T18:25:59.110Z,59.40
2018-03-15T18:31:02.710Z,59.60
2018-03-15T18:36:05.604Z,60.20
2018-03-15T18:41:08.480Z,61.50
2018-03-15T18:46:11.039Z,61.90
2018-03-15T18:51:13.711Z,62.10
2018-03-15T18:56:16.671Z,62.60
2018-03-15T19:01:19.338Z,62.50
2018-03-15T19:06:22.695Z,62.50
2018-03-15T19:11:25.888Z,62.50
2018-03-15T19:16:28.490Z,62.10
2018-03-15T19:21:31.112Z,61.10
2018-03-15T19:26:34.461Z,61.40
2018-03-15T19:31:37.044Z,61.40
2018-03-15T19:36:39.643Z,61.00
2018-03-15T19:41:42.323Z,61.70
2018-03-15T19:46:45.679Z,61.80
2018-03-15T19:51:49.608Z,61.80
2018-03-15T19:56:52.252Z,62.10
2018-03-15T20:01:54.838Z,62.20
2018-03-15T20:06:57.406Z,62.30
2018-03-15T20:11:59.981Z,62.60
2018-03-15T20:17:02.721Z,62.80
2018-03-15T20:22:05.307Z,63.70
2018-03-15T20:27:07.873Z,64.20
2018-03-15T20:32:11.225Z,64.80
2018-03-15T20:37:13.786Z,65.50
2018-03-15T20:42:17.325Z,65.10
2018-03-15T20:47:26.408Z,65.30
2018-03-15T20:52:28.991Z,65.20
2018-03-15T20:57:31.551Z,65.50
2018-03-15T21:02:34.770Z,65.60
2018-03-15T21:07:37.330Z,65.50
2018-03-15T21:12:40.657Z,66.50
2018-03-15T21:17:43.216Z,66.50
2018-03-15T21:22:45.742Z,66.40
2018-03-15T21:27:48.301Z,66.20
2018-03-15T21:32:51.642Z,66.70
2018-03-15T21:37:54.236Z,66.70
2018-03-15T21:42:57.565Z,66.60
2018-03-15T21:48:01.919Z,66.60
2018-03-15T21:53:04.480Z,67.00
2018-03-15T21:58:07.058Z,67.30
2018-03-15T22:03:16.418Z,67.20
2018-03-15T22:08:18.984Z,66.40
2018-03-15T22:13:21.547Z,67.20
2018-03-15T22:18:24.108Z,67.20
2018-03-15T22:23:26.669Z,67.60
2018-03-15T22:28:29.217Z,67.50
2018-03-15T22:33:31.771Z,67.80
2018-03-15T22:38:34.317Z,68.10
2018-03-15T22:43:36.901Z,68.00
2018-03-15T22:48:39.488Z,68.40
2018-03-15T22:53:42.060Z,68.20
2018-03-15T22:58:44.621Z,68.60
2018-03-15T23:03:47.192Z,68.60
2018-03-15T23:08:49.771Z,68.50
2018-03-15T23:13:52.466Z,68.70
2018-03-15T23:18:55.060Z,69.20
2018-03-15T23:23:57.703Z,69.40
2018-03-15T23:29:00.268Z,69.60
2018-03-15T23:34:02.848Z,69.70
2018-03-15T23:39:05.400Z,69.70
2018-03-15T23:44:07.982Z,69.80
2018-03-15T23:49:10.776Z,70.00
2018-03-15T23:54:13.353Z,70.00
2018-03-15T23:59:16.694Z,70.10
